Delta Virtual Airport Information Service

Taiwan Taoyuan International Airport

ICAO: RCTP Country: Taiwan
Latitude: 25.0777 Longitude: 121.233
Latest Arrival : CAL11 (KJFK-RCTP) Latest Departure : ANZ6088 (A) (RCTP-NZAA)


WX CaptureLIVE
Data provided by noaa.gov | Fetched at 03:12:08

METAR : RCTP 030830Z 04015KT 9999 FEW015 17/06 Q1022 NOSIG RMK A3019

TAF : RCTP 030500Z 0306/0412 04018KT 9999 FEW015 BKN032 TEMPO 0312/0318 07015KT TEMPO 0318/0324 07013KT TEMPO 0402/0406 05023KT TEMPO 0402/0408 FEW012 BKN020 TEMPO 0406/0412 07020KT


Runway Data for RCTP
Data provided by openaviationdata.com

Runway ID Mag Var Hdg Length Elevation Surface ILS Freq ILS Id ILS Slope
5 -3 52° 12020 ft 107 ft Concrete 111.1 ITIA 3
6 -3 52° 11001 ft 107 ft Concrete 110.7 ICKS 3
23 -3 232° 12020 ft 107 ft Concrete 109.3 ITYA 3
24 -3 232° 11001 ft 107 ft Concrete 111.9 ICJN 3

Taiwan Taoyuan International Airport, Taiwan
Use only for reference purposes



Not for navigational purposes.